events-overview

 

Overall Female - Vulcan Run 10K 2016

** Results are for the private use of participants and are the Intellectual Property of Set Up Events. Unauthorized use of these results is prohibited.

Place Bib NAME Age Sex CITY/STATE TeamName GunTime GunPace TagTime TagPace
11JOAN AIYABEI37FLANSING MI 00:34:1600:05:3200:34:1500:05:32
21079GLADYS DAVID25FMURFREESBORO TN 00:35:0900:05:4100:35:0800:05:40
37EMMA NEIGEL22FSTARKVILLE MS 00:35:5300:05:4800:35:5200:05:48
43VICTORIA VORONKO25FGREENVILLE SC 00:36:0000:05:4900:35:5900:05:49
5941JOANNA MCCOY22FMOBILE AL 00:37:3100:06:0400:37:3000:06:03
64RACHEL HARLEY26FBIRMINGHAM ALCADENCE COED00:37:3300:06:0400:37:3200:06:04
711SHAWANNA WHITE36FCOLUMBIA SCRUNNINGLANE COED00:37:4000:06:0500:37:3800:06:05
86JUSTYNA MUDY-MADER32FHUNTSVILLE ALRUNNINGLANE COED00:37:4100:06:0500:37:4000:06:05
99LAUREN SCOTT25FBIRMINGHAM ALCAHABA DISTANCE PROJECT00:38:0600:06:0900:38:0500:06:09
1010WHITLEY WALDROP23FJACKSONVILLE ALCADENCE COED00:38:4300:06:1500:38:4200:06:15
118CHELSEY PALMER28FBIRMINGHAM ALCAHABA DISTANCE PROJECT00:40:1200:06:2900:40:1000:06:29
122JENNIFER DUNN26FBIRMINGHAM AL 00:41:0500:06:3800:41:0300:06:38
13233MADELEINE FRANK25FBIRMINGHAM AL 00:41:2300:06:4100:41:1900:06:40
14166MARY CRAIG24FHOOVER AL 00:41:4400:06:4400:41:3900:06:44
15294FONTAINE HASKELL35FBIRMINGHAM ALRESOLUTE RUNNING WOMEN00:41:4500:06:4400:41:4300:06:44
161037KELLY FARRELL28FBIRMINGHAM AL 00:41:4900:06:4500:41:3800:06:43
17823LAUREN FLOYD34FBIRMINGHAM ALCADENCE COED00:41:5200:06:4600:41:4800:06:45
18311MELANIE HILDEBRANDT28FBIRMINGHAM AL 00:41:5800:06:4600:41:5400:06:46
19276MISTY GRIFFIN42FMOODY AL 00:42:5800:06:5600:42:5400:06:56
20337LAUREN HOWELL24FBIRMINGHAM ALCAHABA DISTANCE PROJECT00:43:3200:07:0200:43:3000:07:01
21173JULIE CROUSHORN44FPELHAM ALRESOLUTE RUNNING WOMEN00:43:4000:07:0300:43:3700:07:03
22187ANNE DEBARDELEBEN34FBIRMINGHAM ALRESOLUTE RUNNING WOMEN00:44:4500:07:1400:44:3700:07:12
23105MURRAY BROMSTAD39FBIRMINGHAM AL 00:44:4700:07:1400:44:4100:07:13
24948JENNIFER MURRAY32FBIRMINGHAM AL 00:45:0200:07:1600:44:5600:07:15
25138JENNIFER CHRISTY47FBIRMINGHAM AL 00:45:1400:07:1800:45:0900:07:17
26328ALISON HOOVER50FHOOVER AL 00:45:4000:07:2200:45:3100:07:21
27509LAUREN MURPHREE26FGARDENDALE AL 00:45:4500:07:2300:45:1600:07:19
28933MARY BETH LEE41FHOOVER AL 00:45:5000:07:2400:45:4300:07:23
29319TRICIA HOLBROOK55FBIRMINGHAM AL 00:46:4300:07:3300:46:3600:07:31
30854MEGHAN RALPH28FBIRMINGHAM AL 00:46:4500:07:3300:46:4000:07:32
PlaceBibNAMEAgeSexCITY/STATETeamNameGunTimeGunPaceTagTimeTagPace
311042MICHELLE REID37FHOMEWOOD AL 00:47:0800:07:3700:46:5600:07:35
321027RACHEL FRY41FBIRMINGHAM AL 00:47:1800:07:3800:46:3600:07:31
3361KELLY ATKINS32FBIRMINGHAM AL 00:47:3800:07:4100:47:2400:07:39
34121THERESA BURST58FBIRMINGHAM AL 00:48:2500:07:4900:48:1600:07:48
3553JENNIFER ANDRESS48FHOMEWOOD ALRESOLUTE RUNNING WOMEN00:48:3000:07:5000:48:1700:07:48
36263CATHERINE GOMEZ25FBIRMINGHAM AL 00:48:5400:07:5400:48:4100:07:52
37924JEN JACKSON47FHOMEWOOD AL 00:49:0300:07:5500:48:5000:07:53
38893ANGEL DARMER34FBIRMINGHAM AL 00:49:4000:08:0100:48:3500:07:51
39199MEGAN DRUMM34FBIRMINGHAM AL 00:49:4300:08:0100:49:2300:07:58
40595MISTY REYNOLDS43FVESTAVIA AL 00:50:0000:08:0400:49:5400:08:03
41672AMANDA SOONG40FVESTAVIA HILLS AL 00:50:0300:08:0500:49:0200:07:55
42766LAURIE WHITE34FBIRMINGHAM AL 00:50:3100:08:0900:50:1300:08:06
43700JAMIE THOMAS55FBIRMINGHAM AL 00:50:4700:08:1200:50:3500:08:10
44395JANE LAMB45FBIRMINGHAM AL 00:50:5000:08:1200:50:3600:08:10
45601HADEN RIDLEHOOVER45FBIRMINGHAM AL 00:50:5000:08:1200:50:3700:08:10
46760STELLA WENNBERG30FWINFIELD AL 00:50:5100:08:1300:50:1200:08:06
47159LAUREN CORNELIUS27FONEONTA AL 00:51:0700:08:1500:50:4400:08:11
48646GRETCHEN SHEPPARD36FBIRMINGHAM AL 00:51:0800:08:1500:50:5100:08:13
49976UTA WENDLAND39FBESSEMER AL 00:51:2000:08:1700:50:4800:08:12
50262HOLLY GOFF39FBIRMINGHAM AL 00:51:2200:08:1700:50:4100:08:11
51520TAYLOR NIEDER25FBIRMINGHAM AL 00:51:2900:08:1900:50:4900:08:12
5244AMELIA ALTZ-STAMM33FBIRMINGHAM AL 00:51:3600:08:2000:51:2400:08:18
53932SHILONQUA LEE39FBESSEMER ALRESOLUTE RUNNING WOMEN00:51:5200:08:2200:51:3200:08:19
54680KELSEY STEIN27FBIRMINGHAM AL 00:51:5600:08:2300:51:4900:08:22
55211HEATHER ERON37FBIRMINGHAM AL 00:51:5700:08:2300:51:3300:08:19
56613TOVAH ROSE36FBIRMINGHAM AL 00:51:5800:08:2300:51:1700:08:17
57465MARY LEE MCMAHON49FBIRMINGHAM AL 00:52:0100:08:2400:51:3600:08:20
58479SALLY ANN MISSILDINE17FDECATUR AL 00:52:0100:08:2400:51:4000:08:20
5947ASHLEY AMES38FHELENA AL 00:52:1300:08:2600:51:3800:08:20
60969JULIE TUCKER35FBIRMINGHAM AL 00:52:1700:08:2600:51:4300:08:21
61366STACY KADLE54FHOMEWOOD AL 00:52:2000:08:2700:52:0300:08:24
PlaceBibNAMEAgeSexCITY/STATETeamNameGunTimeGunPaceTagTimeTagPace
62252MEREDITH GAY39FBIRMINGHAM AL 00:52:2000:08:2700:51:5200:08:22
63518JESSICA NICHOLS26FBIRMINGHAM AL 00:52:2500:08:2800:52:0800:08:25
64533AMBER ORTIZ26FBIRMINGHAM AL 00:52:3100:08:2900:51:3200:08:19
65167TERESA CRAIN49FVESTAVIA HILLS ALRUNNINGLANE COED00:52:3200:08:2900:52:2300:08:27
66740LAURA CATHERIN WALLACE19FBRENTWOOD TN 00:52:3900:08:3000:52:2700:08:28
67182KRISTIE DAY32FBIRMINGHAM AL 00:52:5600:08:3300:52:3600:08:29
68265CHERYL GOODWIN46FBIRMINGHAM AL 00:52:5700:08:3300:52:5200:08:32
69214TAYLOR ESTES38FBIRMINGHAM AL 00:53:0400:08:3400:52:4500:08:31
70737ANDREA WALKER34FBIRMINGHAM AL 00:53:0800:08:3500:52:5200:08:32
71950BETH NORRIS37FQUINTON AL 00:53:0900:08:3500:52:3900:08:30
72669GRACE SMITHERMAN28FHELENA AL 00:53:1100:08:3500:52:4700:08:31
73155ASHLEY COMMINS39FBIRMINGHAM AL 00:53:1100:08:3500:52:3400:08:29
74733CHASSI WADDELL29FFULTONDALE AL 00:53:2500:08:3700:52:4800:08:31
75331KYLIE HOPPER38FBIRMINGHAM AL 00:53:2700:08:3800:53:1100:08:35
76938KATHRYNE MARTIN42FBIRMINGHAM AL 00:53:3100:08:3800:53:0900:08:35
77238LISA FULLER57FBIRMINGHAM AL 00:53:3600:08:3900:53:2600:08:38
78364SARA JOYCE29FDENVER CO 00:53:4500:08:4100:53:2000:08:37
791083MARY KATHRYN WOODS23FHOMEWOOD AL 00:53:4500:08:4100:53:2100:08:37
80637ERIN SEARSON33FBIRMINGHAM AL 00:54:0000:08:4300:53:3000:08:38
81428MARIA MADDEN31FBIRMINGHAM AL 00:54:0900:08:4400:53:1600:08:36
82408HEATHER LEE39FBIRMINGHAM AL 00:54:1500:08:4500:53:5200:08:42
83392HANNA LAHR28FBIRMINGHAM AL 00:54:1500:08:4500:53:5300:08:42
84715KACY TUCKER27FMOUNT OLIVE AL 00:54:3600:08:4900:54:1900:08:46
85478JULIE MISSILDINE53FDECATUR AL 00:54:4400:08:5000:54:2300:08:47
86513LISA NAGY50FBIRMINGHAM AL 00:54:4700:08:5100:54:3100:08:48
87756AMI WEEMS42FBIRMINGHAM AL 00:54:5500:08:5200:53:4300:08:40
88796LESLIE WRIGHT35FBIRMINGHAM AL 00:55:0200:08:5300:54:5100:08:51
89574JEAN POWERS53FMOBILE AL 00:55:0800:08:5400:54:1200:08:45
90324LAUREN HOLT22FBIRMINGHAM AL 00:55:0900:08:5400:54:4100:08:50
91185KATHERINE DEASE38FBIRMINGHAM AL 00:55:1100:08:5400:55:0000:08:53
921092BRITTANY DECKER27FBIRMINGHAM AL 00:55:1400:08:5500:55:0000:08:53
PlaceBibNAMEAgeSexCITY/STATETeamNameGunTimeGunPaceTagTimeTagPace
931061KARI HOGUE39FVESTAVIA AL 00:55:1600:08:5500:54:3900:08:49
94158CARA COOPER22FBIRMINGHAM AL 00:55:2700:08:5700:55:2100:08:56
95625MELISSA SANCHEZ29FFULTONDALE AL 00:55:2900:08:5700:54:5300:08:52
9692AMY BONKA28FBIRMINGHAM AL 00:55:4100:08:5900:55:2800:08:57
97156ELIZABETH COMPTON42FBIRMINGHAM AL 00:55:4300:09:0000:55:2800:08:57
98193ANNE DIGGS41FBIRMINGHAM AL 00:55:4700:09:0000:55:2300:08:56
99489CARA MORANTZ33FBIRMINGHAM AL 00:55:4800:09:0000:55:2700:08:57
100309ALEJANDRA HERNANDEZ ORTIZ28FBIRMINGHAM AL 00:55:5100:09:0100:55:3300:08:58
101964DEANNA STEELE56FTUSCALOOSA AL 00:55:5500:09:0200:55:4300:09:00
102437KATIE MATCHEN27FBIRMINGHAM AL 00:55:5600:09:0200:55:4700:09:00
103599EMILY RICHEY26FTUSCALOOSA AL 00:56:0100:09:0300:55:0400:08:53
104560BRIDGET PHILLIPS39FTRUSSVILLE AL 00:56:0500:09:0300:55:3000:08:58
105548MELANIE PAUL51FLOUISVILLE MS 00:56:0800:09:0400:55:3800:08:59
106354LAUREN JOHNSEY35FBIRMINGHAM AL 00:56:1200:09:0400:55:1600:08:55
107552JULIE PEARCE44FBIRMINGHAM ALRESOLUTE RUNNING COED00:56:1500:09:0500:55:4500:09:00
10856AMY ARMSTRONG41FSPANISH FORT AL 00:56:1600:09:0500:55:4900:09:01
109596CATHERINE RHODES41FGOLDEN CO 00:56:1600:09:0500:55:4900:09:01
11049ERICA ANDERSON41FBIRMINGHAM AL 00:56:1800:09:0500:55:5700:09:02
111418CLAIRE LONG34FBIRMINGHAM AL 00:56:2400:09:0600:55:5900:09:02
112524ALLIE NORTON23FHOMEWOOD AL 00:56:2600:09:0600:56:1200:09:04
113663MEGAN SMITH19FHUNTSVILLE AL 00:56:3000:09:0700:56:1700:09:05
114367KIM KANE49FVESTAVIA AL 00:56:3700:09:0800:56:1400:09:05
115873LESLIE ARMSTRONG38FTRUSSVILLE AL 00:56:4600:09:1000:56:1200:09:04
116971ANA TUCKER40FTRUSSVILLE AL 00:56:5800:09:1200:56:2700:09:07
117235KRISTINA FREYMUTH43FFREISING 00:56:5900:09:1200:56:1200:09:04
118988DIANA BLACKWELL31FBIRMINGHAM AL 00:57:0800:09:1300:56:5300:09:11
119989EMMA GRACE WATSON12FBIRMINGHAM AL 00:57:1100:09:1400:56:4200:09:09
1201050EMILY SCHROLL29FHOMEWOOD AL 00:57:1100:09:1400:56:2900:09:07
121350KAKI JENKINS53FBIRMINGHAM AL 00:57:1600:09:1500:56:3900:09:09
122623MEAGHAN RYAN34FBIRMINGHAM ALRESOLUTE RUNNING WOMEN00:57:2000:09:1500:56:4300:09:09
123402KATHRYN LAVENDER46FBIRMINGHAM AL 00:57:2000:09:1500:57:0600:09:13
PlaceBibNAMEAgeSexCITY/STATETeamNameGunTimeGunPaceTagTimeTagPace
124382ANN KLASNER50FBIRMINGHAM ALRESOLUTE RUNNING COED00:57:2200:09:1600:56:4500:09:10
125584MICHELLE RAMSEY33FTRUSSVILLE AL 00:57:2300:09:1600:56:3700:09:08
126970VERONICA TUCKER46FBIRMINGHAM AL 00:57:2500:09:1600:56:5400:09:11
127144APRIL CLOUD44FODENVILLE AL 00:57:2700:09:1600:56:5100:09:11
128617BARBARA ROURKE52FBIRMINGHAM AL 00:57:2800:09:1700:56:5100:09:11
129784JULIE WILSON39FCLANTON AL 00:57:3200:09:1700:57:1100:09:14
13070JENNY BARRY50FVESTAVIA AL 00:57:3200:09:1700:57:2100:09:15
131867JENNIFER WALKER-JOURNEY49FHOMEWOOD AL 00:57:3300:09:1700:57:0300:09:13
132761ASHLEY WERCHANOWSKYJ41FHOOVER AL 00:57:3500:09:1800:56:3700:09:08
133701SARA THOMPSON36FHOMEWOOD AL 00:57:3700:09:1800:57:1400:09:14
134981MARGARET TURNER48FVESTAVIA AL 00:57:3900:09:1800:57:2200:09:16
1351020TANYA NIX49FBIRMINGHAM AL 00:57:3900:09:1800:57:2300:09:16
136102GEORGIA BRENNAN48FBIRMINGHAM AL 00:57:4100:09:1900:57:0100:09:12
137810KIM BLACKENBURG35FBIRMINGHAM AL 00:57:4300:09:1900:57:1900:09:15
138900CARLEY EZZELL32FBIRMINGHAM AL 00:57:4300:09:1900:57:1200:09:14
139191EMILY DEVRIESE19FGRAND RAPIDS MI 00:57:4700:09:2000:57:0700:09:13
140921VALERIE HUGHES42FPRATTVILLE AL 00:57:4800:09:2000:57:1100:09:14
141692GINGER TALLENT56FKIMBERLY AL 00:58:0000:09:2200:57:3800:09:18
142896HEATHER DYKES42FTRUSSVILLE AL 00:58:0200:09:2200:57:1400:09:14
143816LINDSAY DEVENING40FBIRMINGHAM AL 00:58:0400:09:2200:57:4800:09:20
144317ANGIE HOGELAND42FONEONTA AL 00:58:0500:09:2300:57:5800:09:21
145895TONYA DRINKARD31FIRONDALE AL 00:58:0600:09:2300:57:3400:09:18
146445TRACEY MAY28FTRUSSVILLE AL 00:58:0700:09:2300:57:5200:09:20
147679RACHEL STARK27FBIRMINGHAM AL 00:58:0700:09:2300:57:5200:09:20
148563ALEX PHIPPS26FBIRMINGHAM AL 00:58:0700:09:2300:57:3700:09:18
149172ASHLEY CROCKETT32FGARDENDALE AL 00:58:1600:09:2400:57:4200:09:19
150903JANNA FIELDS36FBIRMINGHAM AL 00:58:2200:09:2500:57:4800:09:20
151984JENNIFER CROKER41FHOOVER AL 00:58:2700:09:2600:57:2100:09:15
152872CHRISTINA ANDREEN31FBIRMINGHAM AL 00:58:3000:09:2600:57:3400:09:18
153217DEBBIE EVANS59FSPRINGVILLE AL 00:58:3600:09:2700:57:5700:09:21
154255MEREDITH GEORGE36FCALERA AL 00:58:4100:09:2800:58:1800:09:25
PlaceBibNAMEAgeSexCITY/STATETeamNameGunTimeGunPaceTagTimeTagPace
155242KARMEN GAINES22FBIRMINGHAM AL 00:58:4100:09:2800:58:1300:09:24
156826JAYNE HAFIZI24FMOBILE AL 00:58:4300:09:2900:57:5500:09:21
157864KASEY TUCKER25FBIRMINGHAM AL 00:58:4300:09:2900:57:5500:09:21
158244BLAIR GAITHER21FBIRMINGHAM AL 00:58:4900:09:3000:57:3800:09:18
159481STEPHANIE MITCHELL20FTUSCALOOSA AL 00:58:5100:09:3000:58:1000:09:23
1601088ANNE GAZZINI27FVESTAVIA AL 00:58:5900:09:3100:57:5200:09:20
1611086KATHERINE TISDALE26FVESTAVIA AL 00:58:5900:09:3100:57:5300:09:21
162866KATY VENARD31FBIRMINGHAM AL 00:59:0300:09:3200:58:4700:09:29
163326KIMBERLY HOOKS41FBIRMINGHAM AL 00:59:0300:09:3200:58:2200:09:25
164271JESSICA GRAYSON29FBIRMINGHAM AL 00:59:0400:09:3200:58:4400:09:29
165787BROOKE WINGARD35FHOOVER AL 00:59:0500:09:3200:58:2400:09:26
166611BETH ROSE42FBIRMINGHAM ALRESOLUTE RUNNING COED00:59:0800:09:3300:58:3200:09:27
16775TASHA BEATY42FSTERRETT AL 00:59:1900:09:3400:58:3200:09:27
1681000ROBIN MARK39FBIRMINGHAM AL 00:59:2200:09:3500:58:5300:09:30
169456SAMANTHA MCCLUNEY40FCHELSEA AL 00:59:2400:09:3500:58:3100:09:27
170228DIXIE FORD41FBIRMINGHAM AL 00:59:2500:09:3500:58:3600:09:27
171302JESSICA HEINE34FBIRMINGHAM AL 00:59:2900:09:3600:59:1900:09:34
172920STEPHANIE HUBBARD35FBIRMINGHAM ALRESOLUTE RUNNING COED00:59:3700:09:3700:58:3700:09:28
173966ELANA SWINEY40FBIRMINGHAM AL 00:59:4200:09:3800:59:1700:09:34
1741067GAIL BEVIER63FBIRMINGHAM AL 00:59:4200:09:3800:58:4700:09:29
175201CINDY DUKE64FBIRMINGHAM AL 00:59:4600:09:3900:58:5700:09:31
176250BRITTANY GASKIN26FBIRMINGHAM AL 00:59:5000:09:3900:59:2100:09:35
177306LANE HENSON17FBIRMINGHAM AL 00:59:5000:09:3900:59:1100:09:33
178473MARY T. MILLER39FBIRMINGHAM AL 00:59:5300:09:4000:59:0500:09:32
179883TOMMYE BYRD31FHOOVER AL 00:59:5700:09:4100:59:0600:09:32
1801045AMANDA WELLS28FBIRMINGHAM AL 01:00:0500:09:4200:59:4700:09:39
181852BROOKE POIRIER44FLEEDS AL 01:00:0600:09:4200:59:2800:09:36
182490HILARY MORENO46FBIRMINGHAM AL 01:00:0900:09:4300:59:3700:09:37
183795KELLY WRIGHT44FTRUSSVILLE AL 01:00:0900:09:4300:59:3700:09:37
184566KAYLA PINTO24FHOMEWOOD AL 01:00:1200:09:4300:59:5200:09:40
185754NANCY WEBB45FGULF SHORES AL 01:00:1500:09:4400:59:2400:09:35
PlaceBibNAMEAgeSexCITY/STATETeamNameGunTimeGunPaceTagTimeTagPace
186146LISA COLECCHIA39FAURORA IL 01:00:1600:09:4400:59:4000:09:38
187300MARCIE HAYNIE44FBIRMINGHAM AL 01:00:1900:09:4401:00:0300:09:41
188537IRMA PALMER49FBIRMINGHAM ALRESOLUTE RUNNING COED01:00:2100:09:4401:00:0600:09:42
189257KATIE GIBSON32FBIRMINGHAM AL 01:00:2900:09:4601:00:0000:09:41
190221CLARE FARROW22FTUSCALOOSA AL 01:00:3500:09:4700:59:5300:09:40
19179CAROLINE BESHEARS19FFRANKLIN TN 01:00:3600:09:4700:59:5900:09:41
192160LARONDA CORRIN46FBIRMINGHAM AL 01:00:4000:09:4701:00:2800:09:46
193930CHRISTY LEDUKE43FGUIN AL 01:00:4200:09:4800:59:2900:09:36
194508CHRISTIE MURCHISON28FBIRMINGHAM AL 01:00:5600:09:5001:00:1100:09:43
195986STACEY FRICKE44FGARDENDALE AL 01:01:0100:09:5101:00:3600:09:47
196622BETH RYAN33FLEEDS AL 01:01:0800:09:5201:00:4700:09:49
197120JENIFER BURKE45FBIRMINGHAM AL 01:01:1100:09:5301:00:4300:09:48
19871MEG BASHINSKY48FBIRMINGHAM AL 01:01:2100:09:5401:00:5100:09:49
199655HALEY SMITH29FBIRMINGHAM AL 01:01:2300:09:5401:00:5200:09:50
200818BELINDA ECKHOFF35FBIRMINGHAM AL 01:01:2900:09:5501:00:5900:09:50
201330JAMI HOPPER38FTRUSSVILLE AL 01:01:3200:09:5601:00:5600:09:50
202641LAURA SENN35FBIRMINGHAM AL 01:01:3200:09:5601:01:1000:09:52
203690SUSAN SWAGLER52FBIRMINGHAM AL 01:01:3600:09:5701:01:1100:09:53
204225CATIE FLYNT28FCULLMAN AL 01:01:4600:09:5801:01:0400:09:51
205452ANNE MCCABE34FMOUNT OLIVE AL 01:01:5300:09:5901:01:2000:09:54
206243TAMMY GAINES54FBIRMINGHAM AL 01:01:5900:10:0001:01:3100:09:56
207231RACHAEL FOWLER36FWARRIOR AL 01:02:0500:10:0101:00:5100:09:49
208180SARINA DAVIS39FPELHAM AL 01:02:0700:10:0101:01:4300:09:58
20996LEISHA BOWMAN35FBIRMINGHAM AL 01:02:0900:10:0201:01:1700:09:54
210882TIFFANY BRUCE26FBIRMINGHAM AL 01:02:1100:10:0201:01:4500:09:58
211822ROBYN FLEMING30FALABASTER AL 01:02:3200:10:0601:01:1700:09:53
212411KOREN LEE33FBIRMINGHAM ALRUNNINGLANE COED01:02:4500:10:0801:02:3300:10:06
21338JULIA AHO38FBESSEMER AL 01:02:4600:10:0801:01:4900:09:59
214477ABIGAIL MISSILDINE23FDECATUR AL 01:02:5200:10:0901:02:3100:10:05
215210JANE EMMERTH45FBIRMINGHAM AL 01:02:5800:10:1001:02:2100:10:04
216789HANNAH WOOD21FMORRIS AL 01:02:5900:10:1001:02:3100:10:05
PlaceBibNAMEAgeSexCITY/STATETeamNameGunTimeGunPaceTagTimeTagPace
21768LAINE BARNES44FBIRMINGHAM AL 01:02:5900:10:1001:02:3100:10:05
21850SUSAN ANDREAE35FBIRMINGHAM AL 01:03:0100:10:1001:02:0000:10:00
21989STACIE BOACKLE39FHOOVER AL 01:03:0300:10:1101:02:4200:10:07
220915JOY HANSON40FTRUSSVILLE AL 01:03:1000:10:1201:02:3000:10:05
221503GENA MUELLER40FBESSEMER AL 01:03:1200:10:1201:02:0600:10:01
222304MEGHAN HENLEY36FSYLACAUGA AL 01:03:1400:10:1201:02:2300:10:04
223750BRANDY WAYMAN33FAUBURN AL 01:03:1400:10:1201:02:2300:10:04
224991DODIE DRISCOLL45FALABASTER AL 01:03:1500:10:1301:02:0200:10:01
225726KELLY VANDIVER47FBIRMINGHAM AL 01:03:1900:10:1301:02:1400:10:03
226207IRELI ECHEVERRIA32FBIRMINGHAM AL 01:03:4000:10:1701:03:1300:10:12
227568JILL PITTS55FBIRMINGHAM AL 01:03:4100:10:1701:02:3500:10:06
2281026ZOE PENKO19FBIRMINGHAM AL 01:03:4700:10:1801:02:4300:10:07
229222JESSICA FLEMING34FVESTAVIA HILLS AL 01:04:0000:10:2001:02:4300:10:07
230859CHRISTY SHARP46FBIRMINGHAM AL 01:04:0100:10:2001:03:0900:10:11
231110MARLENE BROWN51FTRUSSVILLE AL 01:04:0200:10:2001:03:3800:10:16
232388MARLA KORNEGAY28FBIRMINGHAM AL 01:04:0400:10:2001:03:1400:10:12
233515KATHERINE NEIGEL52FATHABASCA CA 01:04:0600:10:2101:03:4400:10:17
234791KATHLEEN WOODRUFF30FVESTAVIA HILLS AL 01:04:0700:10:2101:03:2600:10:14
235652CECELIA SIMS49FALABASTER AL 01:04:1000:10:2101:03:2600:10:14
2361031CLOTY EL-ZEIN52FBIRMINGHAM AL 01:04:1100:10:2101:03:5200:10:19
2371030LINDA REIMANN56FBIRMINGHAM AL 01:04:1100:10:2201:03:5200:10:18
238632STEPHANIE SCHILLING33FGARDENDALE AL 01:04:1200:10:2201:03:4000:10:16
239779JENNY WILLIAMSON32FBIRMINGHAM AL 01:04:1600:10:2201:04:0100:10:20
240322NANCY HOLLAWAY61FBIRMINGHAM AL 01:04:3000:10:2501:04:0000:10:20
241218DOROTHY EWING36FCALERA AL 01:04:3200:10:2501:03:5800:10:19
242454VICKIE MCCARTHY49FCHELSEA AL 01:04:3400:10:2501:03:4700:10:18
243525CLAIRE NORTON50FHOMEWOOD AL 01:04:3500:10:2501:04:2200:10:23
244399RACHAEL LANCASTER32FBIRMINGHAM AL 01:04:4100:10:2601:04:1300:10:22
245475AMBER MILLS36FONEONTA AL 01:04:4100:10:2601:04:1200:10:22
2461019AMY GARBER30FVESTAVIA AL 01:04:4400:10:2701:04:2900:10:24
24782KATIE BILLINGS25FBIRMINGHAM AL 01:04:4600:10:2701:04:2300:10:24
PlaceBibNAMEAgeSexCITY/STATETeamNameGunTimeGunPaceTagTimeTagPace
248707LAURIE TINDOL27FBIRMINGHAM AL 01:04:5100:10:2801:04:2800:10:24
249738ELEANOR WALKER25FBIRMINGHAM AL 01:04:5200:10:2801:04:2800:10:24
250296MEGAN HATHCOCK33FTRUSSVILLE AL 01:04:5300:10:2801:04:1600:10:22
2511028LEIGH BELCHER45FVESTAVIA HILLS AL 01:04:5700:10:2901:04:1900:10:23
252280GUSSIE HALL29FMOBILE AL 01:04:5800:10:2901:03:4600:10:18
253703KAREN THRELKELD51FBIRMINGHAM AL 01:05:2600:10:3401:05:0300:10:30
254516SUSAN NELMS53FHELENA AL 01:05:2700:10:3401:04:2900:10:24
255541KERI PARKER51FHOOVER AL 01:05:2700:10:3401:04:2800:10:24
256198APRIL DOWLING36FVESTAVIA AL 01:05:3100:10:3401:05:1800:10:32
257783LAURIE WILSON56FHUNTSVILLE AL 01:05:3400:10:3501:04:4400:10:27
258347MELANIE JACKSON62FBIRMINGHAM AL 01:05:3600:10:3501:04:3900:10:26
259757JEANNE WELSH65FSTERRETT AL 01:05:3900:10:3601:04:4300:10:27
260811JESSICA BURNETT34FBIRMINGHAM AL 01:05:4200:10:3601:04:4200:10:26
261174SUE CROWE66FBIRMINGHAM AL 01:06:0000:10:3901:05:3700:10:35
2621016HOLLY JONES36FHOMEWOOD AL 01:06:0200:10:3901:05:1600:10:32
263360NISA JONES40FBIRMINGHAM AL 01:06:0600:10:4001:05:4300:10:36
264956JENNIFER POIRIER49FHOMEWOOD AL 01:06:0800:10:4001:05:4200:10:36
265904KELLY FORDHAM27FHUNTSVILLE AL 01:06:1300:10:4101:05:1400:10:32
266906JANIE FORDHAM63FBIRMINGHAM AL 01:06:1400:10:4101:05:1400:10:32
267147CAROL COLEY43FBIRMINGHAM AL 01:06:1500:10:4201:05:4100:10:36
268359CAROLINE JONES35FBIRMINGHAM AL 01:06:1500:10:4201:05:2500:10:33
2691014AMY WRIGHT32FHOOVER AL 01:06:1600:10:4201:05:1600:10:32
270778JEAN WILLIAMS64FALABASTER AL 01:06:1900:10:4201:06:0700:10:40
271954MELINDA PARKS51FTRUSSVILLE ALRESOLUTE RUNNING COED01:06:1900:10:4201:05:3000:10:34
272274JENNIFER GREMMELS34FTRUSSVILLE AL 01:06:1900:10:4201:05:4100:10:36
273114AUDREY BROWN41FBIRMINGHAM ALRESOLUTE RUNNING COED01:06:2200:10:4301:05:2600:10:34
274113STEPHANIE BROWN45FTRUSSVILLE AL 01:06:2400:10:4301:05:5500:10:38
2751018STEPHANIE LACHINA44FBIRMINGHAM AL 01:06:2600:10:4301:05:3400:10:35
276212KELLY ESTEP33FMC CALLA AL 01:06:2900:10:4401:05:5800:10:39
27781MELISSA BIBB59FPELHAM AL 01:06:3500:10:4501:05:3900:10:36
278894STEPHANIE DEVINE31FTRUSSVILLE AL 01:06:3800:10:4501:06:3800:10:45
PlaceBibNAMEAgeSexCITY/STATETeamNameGunTimeGunPaceTagTimeTagPace
279579BRITTNEY PURDY23FTRUSSVILLET AL 01:06:4200:10:4601:05:5700:10:39
280770SARA BETH WILCOX34FBIRMINGHAM AL 01:06:4900:10:4701:06:1100:10:41
281109EMILY BROWN37FFLORENCE AL 01:06:5000:10:4701:06:1100:10:41
282256AMY GIBSON32FBIRMINGHAM AL 01:06:5200:10:4801:06:1800:10:42
283415TAYLOR LEWIS31FHOOVER AL 01:07:0400:10:4901:06:1200:10:41
284183ABBY DAY28FBIRMINGHAM AL 01:07:0800:10:5001:06:5100:10:47
285721BETH UHLMAN43FBIRMINGHAM AL 01:07:1100:10:5101:06:1200:10:41
286202TIFFANY DUNLAP46FBIRMINGHAM AL 01:07:1100:10:5101:06:1100:10:41
287927IRA JONES59FTRUSSVILLE AL 01:07:1800:10:5201:06:2900:10:44
288588TORI REBMAN42FCHELSEA AL 01:07:2200:10:5201:06:3500:10:45
2891081SANDRA GILLEY55FBIRMINGHAM AL 01:07:2800:10:5301:06:2500:10:43
290594DEANNA RENN46FPRATTVILLE AL 01:07:3600:10:5501:06:3900:10:45
291163SHERYL CORY54FCLEARWATER FL 01:07:4200:10:5601:07:1000:10:50
292162LYNDSIE CORY23FCLEARWATER FL 01:07:4200:10:5601:07:1000:10:50
2931094BETSY HOPSON36FLINCOLN AL 01:07:4400:10:5601:07:1900:10:52
294996TYNISIA ROWELL44FFAIRFIELD AL 01:07:4600:10:5601:06:5700:10:48
295293LISA HARVEY53FSPRINGVILLE AL 01:07:4700:10:5601:07:2000:10:52
296442CHERYL MATTRELLA56FBIRMINGHAM AL 01:07:4700:10:5601:07:2000:10:52
297874JENNIFER BEALL47FBIRMINGHAM AL 01:07:5100:10:5701:07:0000:10:49
298645TARA SHEA42FBIRMINGHAM AL 01:07:5800:10:5801:07:3100:10:54
299710ANALISE TOONE12FBIRMINGHAM AL 01:08:0500:10:5901:07:3600:10:55
300291VICKIE HARRIS58FBIRMINGHAM AL 01:08:0600:10:5901:07:2100:10:52
301153ANNA COLVIN39FBIRMINGHAM AL 01:08:0600:10:5901:07:3900:10:55
302352KYLIE JERNIGAN37FHOOVER AL 01:08:1700:11:0101:07:1900:10:52
303547ASHLEY PATTERSON39FBIRMINGHAM AL 01:08:1900:11:0101:07:2100:10:52
304790MARY WOODRUFF27FBIRMINGHAM AL 01:08:2200:11:0201:07:4000:10:55
30588ASHLEY BLACKWELL30FBIRMINGHAM AL 01:08:2300:11:0201:08:0700:11:00
306290REBECCA HARGRAVES34FBIRMINGHAM AL 01:08:2300:11:0201:07:3900:10:55
307711KRISTINE TOONE40FBIRMINGHAM AL 01:08:2700:11:0301:07:5600:10:58
308410GAIL LEE64FBIRMINGHAM AL 01:08:3900:11:0501:07:3400:10:54
309651TRICIA SIMPSON46FBIRMINGHAM AL 01:08:4400:11:0601:07:5200:10:57
PlaceBibNAMEAgeSexCITY/STATETeamNameGunTimeGunPaceTagTimeTagPace
310848LISA OAKMAN43FBIRMINGHAM AL 01:08:4400:11:0601:07:5100:10:57
311448ELLA MCATEE19FBIRMINGHAM AL 01:08:4800:11:0601:07:3700:10:55
312773SYDNEY WILKERSON19FAUBURN AL 01:08:4800:11:0601:07:3700:10:55
313161ALYSSA CORY26FTALLAHASSEE FL 01:08:5300:11:0701:08:2200:11:02
314530PATSY OLIVER57FVESTAVIA AL 01:08:5300:11:0701:07:3700:10:55
315127TORI CANTAVESPRE44FSTERRETT AL 01:08:5300:11:0701:07:4000:10:55
316284MICHELLE HANKS26FTRUSSVILLE AL 01:08:5800:11:0801:08:1100:11:00
317578LEIGH ANN PRITCHETT30FSPRINGVILLE AL 01:08:5900:11:0801:08:1200:11:00
318719IRENE TYNER62FMONTGOMERY AL 01:08:5900:11:0801:08:1000:11:00
319505EMILY MULLINS27FGADSDEN AL 01:09:1000:11:1001:08:1900:11:02
320129JAMIE CARNES34FMORRIS AL 01:09:1800:11:1101:08:2300:11:02
32145ANNA ALTZ-STAMM35FBIRMINGHAM AL 01:09:2700:11:1201:09:0500:11:09
322753SARAH WEAVER38FHOOVER AL 01:09:2800:11:1301:08:4000:11:05
323947HANNAH MITCHELL23FGARDENDALE AL 01:09:3500:11:1401:08:4900:11:06
324125VALERIE CAMPBELL57FBIRMINGHAM AL 01:09:5000:11:1601:09:2500:11:12
325373KAELA KELLY22FPINSON AL 01:09:5700:11:1701:09:1700:11:11
3261024BETH STOKES40FHELENA AL 01:10:0000:11:1801:09:0500:11:09
327419KRISTIN LONG43FHELENA AL 01:10:0000:11:1801:09:0600:11:09
328449ERIN MCATEE50FBIRMINGHAM AL 01:10:0500:11:1901:08:5700:11:08
329771LAUREN WILDER31FMONTGOMERY AL 01:10:1800:11:2101:09:3600:11:14
33057ALLENE ARNOLD36FBIRMINGHAM AL 01:10:3000:11:2301:10:1700:11:21
331973MARGARET VICE19FBIRMINGHAM AL 01:10:3200:11:2301:10:1800:11:21
3321072JENNIFER COFER39FBIRMINGHAM AL 01:10:4600:11:2501:10:4600:11:25
333830JESSICA JACKSON34FALABASTER AL 01:10:4900:11:2601:09:4500:11:15
334643MITZI SHAFFIELD44FVESTAVIA AL 01:11:0300:11:2801:09:5800:11:17
335739KIERA WALKER32FBIRMINGHAM ALCOUNSELORS ON THE RUN01:11:0400:11:2801:10:0300:11:18
336529SARAH O'KELLEY38FTRUSSVILLE AL 01:11:1400:11:3001:10:3100:11:23
337901LAURA FALONE37FBIRMINGHAM AL 01:11:1500:11:3001:10:0900:11:19
338405LINDA LAZAR68FBIRMINGHAM AL 01:11:2200:11:3101:10:2400:11:22
339967KELLY TAYLOR38FBIRMINGHAM AL 01:11:3300:11:3301:10:5700:11:27
340417JACQUELINE LONG25FBIRMINGHAM AL 01:11:3900:11:3401:10:4800:11:26
PlaceBibNAMEAgeSexCITY/STATETeamNameGunTimeGunPaceTagTimeTagPace
341704ALICE THROWER59FOXFORD AL 01:11:5100:11:3601:10:5500:11:27
342575PATTI PRESTON63FMONTGOMERY AL 01:12:0100:11:3701:11:1000:11:29
343286SABRINA HANSEN-TURNBULL48FBIRMINGHAM AL 01:12:0900:11:3901:11:4300:11:34
344716KATHARINE TURNBULL17FBIRMINGHAM AL 01:12:1000:11:3901:11:5600:11:37
345876NANETTE BICKEL43FBIRMINGHAM AL 01:12:1200:11:3901:11:0300:11:28
346972JUDY VATELLA55FBIRMINGHAM AL 01:12:1200:11:3901:11:0300:11:28
347958CHRISTIE RIERSON44FBIRMINGHAM AL 01:12:1200:11:3901:11:0400:11:28
348486ROSEMARY MOORE51FBIRMINGHAM AL 01:12:1300:11:3901:11:0400:11:28
349980MARY WORTHINGTON52FBIRMINGHAM AL 01:12:2500:11:4101:11:3300:11:33
350150LAURA COLLINS29FBIRMINGHAM ALCABANISS JOHNSTON01:12:3000:11:4201:11:5700:11:37
351443DIANE MAUGHAN42FPELHAM ALCABANISS JOHNSTON01:12:3000:11:4201:11:5600:11:37
352922BRANDI HYATT34FBIRMINGHAM AL 01:12:4000:11:4401:11:5600:11:37
353409CANDICE LEE39FBIRMINGHAM AL 01:12:4500:11:4501:11:3100:11:33
354227MISTY FONTENOT40FBIRMINGHAM ALRESOLUTE RUNNING COED01:12:5100:11:4501:11:5100:11:36
355656SHANOSHA SMITH41FHOOVER AL 01:12:5900:11:4701:11:3500:11:33
356358EMILY JOHNSON27FBIRMINGHAM AL 01:13:0000:11:4701:12:1300:11:39
3571090RUTH WANG30FHOOVER AL 01:13:0700:11:4801:11:5600:11:37
358209STACEY ELROD30FMOODY AL 01:13:2000:11:5001:12:0500:11:38
359208ANDREA ECKELMAN33FMONTEVALLO AL 01:13:2900:11:5201:13:0400:11:47
360287BROOKIE HARBISON45FALABASTER AL 01:13:2900:11:5201:13:0400:11:48
361295WENDY HASSINGER47FBIRMINGHAM AL 01:13:3100:11:5201:12:3100:11:42
3621097JENNIFER KELLEY42FHELENA AL 01:13:3200:11:5201:12:3700:11:43
363960CINDI ROUTMAN59FBIRMINGHAM AL 01:13:5500:11:5601:13:0500:11:48
364136TERESA CHANDLER66FBIRMINGHAM AL 01:14:0000:11:5601:13:0000:11:47
365664TINA SMITH44FBIRMINGHAM AL 01:14:0700:11:5801:13:4900:11:55
366975SUSAN WALKER40FBIRMINGHAM AL 01:14:0900:11:5801:14:0900:11:58
367943MAITE MILLER38FWILSONVILLE AL 01:14:1300:11:5901:13:1800:11:50
368955ADELE PITTS51FHELENA AL 01:14:1600:11:5901:13:4300:11:54
369368JANET KAVINOKY43FHOMEWOOD AL 01:14:2400:12:0001:13:0600:11:48
370561SCOUT PHILLIPS16FBIRMINGHAM AL 01:14:3400:12:0201:13:4400:11:54
371485MEREDITH MOONEY34FWILSONVILLE AL 01:14:5900:12:0601:14:2200:12:00
PlaceBibNAMEAgeSexCITY/STATETeamNameGunTimeGunPaceTagTimeTagPace
37285MARJORIE BISHOP53FHUNTSVILLE AL 01:15:1400:12:0901:14:3800:12:03
373320HEATHER HOLDEN34FHARVEST AL 01:15:2600:12:1001:15:0900:12:08
374802CARY ZEANAH53FVESTAVIA AL 01:15:4000:12:1301:15:1400:12:08
375343LIZ HYDE55FBIRMINGHAM AL 01:15:4600:12:1401:15:0400:12:07
376832SARA KAYLOR34FTUSCALOOSA AL 01:16:3200:12:2101:15:5300:12:15
377562TAN PHILLIPS49FBIRMINGHAM AL 01:17:2700:12:3001:16:3600:12:22
378216CAROLINE ETHERIEDGE40FWARRIOR AL 01:17:3500:12:3101:16:2300:12:20
379241MELISSA GADDIS40FMADISON AL 01:17:5900:12:3501:16:5400:12:25
380694SYDNEY TALLEY23FLEEDS AL 01:18:0900:12:3701:17:5100:12:34
381693SHELLIE TALLEY45FLEEDS AL 01:18:1000:12:3701:17:5100:12:34
382145NIKKI COHRON25FBIRMINGHAM AL 01:18:1900:12:3801:17:1500:12:28
383598BAILIEGH RICHARDS6FKIMBERLY AL 01:18:4300:12:4201:17:4600:12:33
384597AMY RICHARDS29FKIMBERLY ALRESOLUTE RUNNING COED01:18:5000:12:4301:17:5300:12:34
385677MAGGIE STANA13FBIRMINGHAM AL 01:18:5100:12:4301:17:5000:12:34
386678MEG STANA45FBIRMINGHAM AL 01:18:5100:12:4301:17:4800:12:33
387682JENNIFER STIMSON47FBIRMINGHAM AL 01:19:1300:12:4701:18:0300:12:36
388441LIZA MATHEWS45FODENVILLE AL 01:19:3100:12:5001:18:4300:12:42
389686MELONIE STURM47FPELHAM AL 01:19:3800:12:5101:19:1000:12:47
390363LUCY JORDAN41FHOOVER AL 01:19:4500:12:5201:19:1900:12:48
3911009KAYLEY KRUEGER28FBIRMINGHAM AL 01:19:5100:12:5301:19:3800:12:51
392534STEPHANIE OSBORNE33FGARDENDALE AL 01:20:0200:12:5501:19:4000:12:51
393499NICOLE MORTON33FGARDENDALE AL 01:20:0200:12:5501:19:4000:12:51
3941098ANNA KRUEGER25FBIRMINGHAM AL 01:20:0800:12:5601:19:5500:12:54
395390BETSY KRUEGER54FBIRMINGHAM AL 01:20:1400:12:5701:19:5600:12:54
396171TABITHA CROCKER26FDORA AL 01:20:3100:13:0001:19:2300:12:49
3971062JENNIE CRAFT55FBIRMINGHAM AL 01:20:3100:13:0001:19:3200:12:50
39894JEAN MARIE BOTTSFORD53FBIRMINGHAM AL 01:20:3500:13:0001:20:0000:12:55
399307LINDSEY HENSON23FBIRMINGHAM AL 01:20:5300:13:0301:20:0300:12:55
400544MICHELE PARR60FBIRMINGHAM AL 01:20:5500:13:0401:19:5500:12:54
401840ANNA MANASCO36FBIRMINGHAM AL 01:20:5800:13:0401:20:1400:12:57
402111JESSICA BROWN39FBATON ROUGE LA 01:20:5800:13:0401:20:1400:12:57
PlaceBibNAMEAgeSexCITY/STATETeamNameGunTimeGunPaceTagTimeTagPace
403189MO DESAI47FBIRMINGHAM AL 01:21:1600:13:0701:20:3100:13:00
404944JULIE MILLER44FBIRMINGHAM AL 01:21:2000:13:0701:20:4000:13:01
405510AMY MURPHY44FPELHAM AL 01:21:2900:13:0901:20:1700:12:57
406463KATHY MCKEE33FSPRINGVILLE AL 01:21:5600:13:1301:21:2800:13:09
407659KATLYN SMITH25FWETUMPKA AL 01:22:2000:13:1701:21:2200:13:08
408234MICHELLE FREEMAN32FBIRMINGHAM AL 01:22:2100:13:1701:21:2200:13:08
409254AMANDA GEORGE39FBIRMINGHAM AL 01:23:0300:13:2401:22:2900:13:19
410736CYNTHIA WALDROP54FBIRMINGHAM AL 01:23:0400:13:2401:22:2000:13:17
411676BRIAN STANA46FBIRMINGHAM AL 01:23:3700:13:3001:22:3600:13:20
412776VANESSA WILLIAMS39FCLANTON AL 01:24:0500:13:3401:23:0100:13:24
413369CHRISTY KEARLEY42FCOLUMBIANA AL 01:24:4000:13:4001:24:2800:13:38
414338DONNA HUGGINS65FBIRMINGHAM AL 01:25:2800:13:4801:24:2300:13:37
415809GIA BIVENS39FBIRMINGHAM AL 01:25:3800:13:4901:25:1900:13:46
416850FRANCES PATTON65FBIRMINGHAM AL 01:25:3900:13:4901:25:2000:13:46
417500PAMELA MOSER60FBIRMINGHAM AL 01:25:4800:13:5101:24:5400:13:42
418631LESLIE SCARBOROUGH39FBIRMINGHAM AL 01:25:4800:13:5101:24:5300:13:42
419610LYNN ROPER59FBIRMINGHAM AL 01:25:4800:13:5101:24:5400:13:42
420798KIM YARBORO50FBIRMINGHAM AL 01:26:0800:13:5401:25:4000:13:49
421846SARA NABORS39FCHELSEA AL 01:26:1500:13:5501:25:2100:13:46
422157JANE COOPER63FBIRMINGHAM AL 01:26:2800:13:5701:25:1600:13:46
423635ADRIENNE SCOTT30FBIRMINGHAM AL 01:27:2700:14:0701:26:3700:13:59
424130PAMELA CARTER66FBIRMINGHAM AL 01:28:0900:14:1301:27:3400:14:08
425123RACHEL CAIN36FJASPER AL 01:28:1800:14:1501:27:2100:14:06
42672ANITRA BATIE42FJASPER AL 01:28:3300:14:1701:27:3600:14:08
427998CAROL MILLS46FHOMEWOOD AL 01:28:4600:14:1901:27:3200:14:07
428805KATHRYN APPLETON49FBIRMINGHAM AL 01:28:4600:14:1901:27:3200:14:07
429689SUE ELLEN SUMMERS57FMOUNTAIN BROOK AL 01:29:1100:14:2301:28:2500:14:16
430589AMIEE REEVES48FBIRMINGHAM AL 01:29:2200:14:2501:28:2600:14:16
431801SALLIE YOUNGBLOOD46FBIRMINGHAM AL 01:29:2200:14:2501:28:2500:14:16
432134LAURA CHAATH29FBIRMINGHAM AL 01:29:2500:14:2601:28:4900:14:20
433143JENNIFER CLAYTON34FCHELSEA AL 01:29:3000:14:2701:28:2400:14:16
PlaceBibNAMEAgeSexCITY/STATETeamNameGunTimeGunPaceTagTimeTagPace
434780PAMELA WILSON35FBIRMINGHAM AL 01:29:5800:14:3101:28:4400:14:19
435910COURTNEY GARZA33FPELHAM AL 01:30:0200:14:3201:28:4900:14:20
436386CHERYL KNIGHT33FBIRMINGHAM AL 01:30:0600:14:3201:28:5400:14:21
437357CHRISTY JOHNSON46FBIRMINGHAM AL 01:30:2000:14:3501:30:0300:14:32
43884CYNTHIA BISHOP21FHUNTSVILLE AL 01:30:3400:14:3701:29:4600:14:29
4391013MEREDITH VINCENT40FCLANTON AL 01:30:4000:14:3801:29:3700:14:28
440746MARY ANN WATKINS51FGADSDEN AL 01:32:4000:14:5701:31:3800:14:47
441117LAURA BUCKANAN45FBIRMINGHAM AL 01:32:4000:14:5701:31:3900:14:47
442270NOEL GRAHAM59FBIRMINGHAM AL 01:33:0300:15:0101:31:5300:14:50
443361SANDRA JONES63FBIRMINGHAM AL 01:33:0300:15:0101:31:5300:14:50
4441059LISA SIMS55FHELENA AL 01:33:1000:15:0201:32:0600:14:52
445916AMANDA HARDEN38FPELHAM AL 01:34:0100:15:1001:33:0500:15:01
446355NATALIAN JOHNSON28FCALERA AL 01:35:3300:15:2501:34:3000:15:15
447385KANEESHA KNIGHT25FSYLACAUGA AL 01:35:4400:15:2701:34:3500:15:16
448447CAMPBELL MCATEE17FBIRMINGHAM AL 01:35:5300:15:2801:34:4200:15:17
449348CECILY JACKSON44FMONTGOMERY AL 01:36:1200:15:3101:35:1500:15:22
450381JULIA KIRKSEY45FSYLACAUGA AL 01:36:1700:15:3201:35:0900:15:21
451573RENEE POWELL54FCLANTON AL 01:36:2100:15:3301:35:1300:15:22
452603KATHY ROBBINS45FMAYLENE AL 01:36:2200:15:3301:35:1200:15:22
453734KAREN WADLINGTON51FBESSEMER AL 01:37:0100:15:3901:35:5500:15:29
454868MARIETTA WICKS47FBESSEMER AL 01:39:2000:16:0201:38:1500:15:51
455137MISSY CHILDERS53FBIRMINGHAM AL 01:39:2500:16:0201:38:4000:15:55
456928MARY GRACE KAUFMANN54FBIRMINGHAM AL 01:44:1000:16:4801:43:5200:16:46
457488BRIDGETT MOORE31FHOOVER AL 01:56:4300:18:5001:55:3000:18:38
458397LINDA LANCASTER64FBIRMINGHAM AL 01:56:4600:18:5001:55:2900:18:38

** Results are for the private use of participants and are the Intellectual Property of Set Up Events. Unauthorized use of these results is prohibited.